Time;durP1;ratioP1;P1;durP2;ratioP2;P2;SDS_P1;SDS_P2;PMS_P1;PMS_P2;Temp;Humidity;BMP_temperature;BMP_pressure;BME280_temperature;BME280_humidity;BME280_pressure;Samples;Min_cycle;Max_cycle;Signal;HPM_P1;HPM_P2
2024/01/09 00:03:13;;;;;;;109.67;41.13;;;;;;;;;;10093208;29;20049;-84
2024/01/09 00:08:14;;;;;;;109.30;41.47;;;;;;;;;;10074581;29;20118;-84
2024/01/09 00:13:15;;;;;;;111.07;39.03;;;;;;;;;;10069482;29;20044;-84
2024/01/09 00:18:16;;;;;;;109.47;41.93;;;;;;;;;;10088978;29;20135;-81
2024/01/09 00:23:17;;;;;;;107.37;42.27;;;;;;;;;;10092137;29;20091;-80
2024/01/09 00:28:18;;;;;;;106.40;41.17;;;;;;;;;;10087393;29;20041;-82
2024/01/09 00:33:19;;;;;;;119.30;40.57;;;;;;;;;;10098535;29;20491;-80
2024/01/09 00:38:21;;;;;;;111.10;39.93;;;;;;;;;;10075357;29;20049;-82
2024/01/09 00:43:28;;;;;;;100.30;38.47;;;;;;;;;;10087248;29;20025;-83
2024/01/09 00:48:29;;;;;;;105.33;39.97;;;;;;;;;;10071364;29;20076;-82
2024/01/09 00:53:30;;;;;;;107.07;37.10;;;;;;;;;;10087839;29;20036;-81
2024/01/09 00:58:31;;;;;;;100.87;39.20;;;;;;;;;;10078852;29;20143;-80
2024/01/09 01:03:32;;;;;;;102.57;37.90;;;;;;;;;;10080082;29;20609;-81
2024/01/09 01:08:34;;;;;;;124.40;43.20;;;;;;;;;;10101989;29;20037;-82
2024/01/09 01:13:36;;;;;;;104.97;40.27;;;;;;;;;;10096295;29;20082;-84
2024/01/09 01:18:37;;;;;;;104.97;35.73;;;;;;;;;;10093373;29;20136;-81
2024/01/09 01:23:38;;;;;;;90.70;35.87;;;;;;;;;;10103455;29;20033;-81
2024/01/09 01:28:39;;;;;;;100.30;38.43;;;;;;;;;;10084954;29;20040;-80
2024/01/09 01:33:40;;;;;;;106.87;38.87;;;;;;;;;;10093287;29;20040;-80
2024/01/09 01:38:41;;;;;;;104.10;40.13;;;;;;;;;;10092321;29;20045;-82
2024/01/09 01:43:42;;;;;;;97.63;36.67;;;;;;;;;;10075262;29;20047;-80
2024/01/09 01:48:44;;;;;;;108.30;38.50;;;;;;;;;;10091511;29;20411;-82
2024/01/09 01:53:45;;;;;;;76.23;31.67;;;;;;;;;;10091888;29;20556;-83
2024/01/09 01:58:46;;;;;;;92.47;37.57;;;;;;;;;;10091037;29;20035;-80
2024/01/09 02:03:47;;;;;;;100.03;40.17;;;;;;;;;;10091257;29;20123;-81
2024/01/09 02:08:49;;;;;;;98.03;36.07;;;;;;;;;;10093684;29;20666;-81
2024/01/09 02:13:56;;;;;;;97.97;35.50;;;;;;;;;;10073706;29;20047;-80
2024/01/09 02:18:57;;;;;;;92.33;37.63;;;;;;;;;;10097896;29;20041;-82
2024/01/09 02:23:58;;;;;;;86.60;33.67;;;;;;;;;;10090833;29;20470;-82
2024/01/09 02:29:02;;;;;;;99.97;37.73;;;;;;;;;;10093789;29;20169;-81
2024/01/09 02:34:03;;;;;;;96.32;36.33;;;;;;;;;;10091042;29;20036;-80
2024/01/09 02:39:04;;;;;;;109.60;37.77;;;;;;;;;;10102196;29;20037;-81
2024/01/09 02:44:05;;;;;;;115.93;39.63;;;;;;;;;;10092359;29;20052;-82
2024/01/09 02:49:06;;;;;;;114.90;42.87;;;;;;;;;;10091654;29;20477;-84
2024/01/09 02:54:07;;;;;;;106.93;41.47;;;;;;;;;;10089408;29;20029;-81
2024/01/09 02:59:08;;;;;;;103.87;39.27;;;;;;;;;;10096122;29;20053;-83
2024/01/09 03:04:09;;;;;;;101.03;35.40;;;;;;;;;;10079239;29;20044;-81
2024/01/09 03:09:17;;;;;;;104.40;38.87;;;;;;;;;;10089434;29;20119;-84
2024/01/09 03:14:18;;;;;;;93.83;37.17;;;;;;;;;;10075912;29;20045;-81
2024/01/09 03:19:19;;;;;;;100.97;36.13;;;;;;;;;;10091246;29;20049;-82
2024/01/09 03:24:20;;;;;;;100.70;36.43;;;;;;;;;;10100788;29;20123;-81
2024/01/09 03:29:21;;;;;;;123.27;45.27;;;;;;;;;;10087074;29;20553;-82
2024/01/09 03:34:22;;;;;;;110.87;40.10;;;;;;;;;;10101246;29;20092;-80
2024/01/09 03:39:23;;;;;;;93.63;35.63;;;;;;;;;;10059955;29;20401;-82
2024/01/09 03:44:24;;;;;;;98.20;36.33;;;;;;;;;;10092271;29;20115;-82
2024/01/09 03:49:25;;;;;;;103.80;37.57;;;;;;;;;;10092819;29;20450;-82
2024/01/09 03:54:26;;;;;;;99.97;33.60;;;;;;;;;;10087240;29;20029;-81
2024/01/09 03:59:27;;;;;;;105.50;35.17;;;;;;;;;;10073755;29;22407;-81
2024/01/09 04:04:34;;;;;;;95.37;37.53;;;;;;;;;;10081684;29;20029;-82
2024/01/09 04:09:35;;;;;;;101.50;34.40;;;;;;;;;;10103661;29;20619;-80
2024/01/09 04:14:36;;;;;;;102.30;37.70;;;;;;;;;;10094146;29;20037;-86
2024/01/09 04:19:41;;;;;;;90.80;35.63;;;;;;;;;;10077773;29;20040;-81
2024/01/09 04:24:42;;;;;;;94.50;35.47;;;;;;;;;;10094556;29;20081;-79
2024/01/09 04:29:43;;;;;;;91.07;34.47;;;;;;;;;;10076850;29;20111;-85
2024/01/09 04:34:44;;;;;;;95.53;34.90;;;;;;;;;;10106824;29;20032;-82
2024/01/09 04:39:45;;;;;;;112.27;39.53;;;;;;;;;;10094207;29;20055;-81
2024/01/09 04:44:46;;;;;;;108.80;40.03;;;;;;;;;;10099364;29;20040;-81
2024/01/09 04:49:47;;;;;;;124.40;43.30;;;;;;;;;;10098656;29;20125;-80
2024/01/09 04:54:48;;;;;;;99.17;39.80;;;;;;;;;;10092770;29;20028;-80
2024/01/09 04:59:49;;;;;;;110.47;40.40;;;;;;;;;;10112782;29;20048;-80
2024/01/09 05:04:50;;;;;;;110.70;39.90;;;;;;;;;;10099323;29;20059;-79
2024/01/09 05:09:51;;;;;;;107.77;40.60;;;;;;;;;;10098524;29;20037;-78
2024/01/09 05:14:52;;;;;;;99.70;40.97;;;;;;;;;;10103224;29;20040;-79
2024/01/09 05:19:53;;;;;;;102.10;42.20;;;;;;;;;;10092183;29;20068;-77
2024/01/09 05:24:54;;;;;;;101.27;40.63;;;;;;;;;;10092093;29;20104;-78
2024/01/09 05:29:55;;;;;;;107.20;40.47;;;;;;;;;;10091009;29;20037;-78
2024/01/09 05:34:57;;;;;;;97.73;38.30;;;;;;;;;;10077008;29;20437;-79
2024/01/09 05:39:58;;;;;;;108.40;42.57;;;;;;;;;;10092229;29;20076;-79
2024/01/09 05:44:59;;;;;;;96.33;36.77;;;;;;;;;;10093914;29;20124;-78
2024/01/09 05:50:00;;;;;;;105.40;38.07;;;;;;;;;;10091871;29;20494;-79
2024/01/09 05:55:01;;;;;;;98.23;36.03;;;;;;;;;;10090711;29;20029;-80
2024/01/09 06:00:02;;;;;;;93.97;36.93;;;;;;;;;;10091196;29;20048;-80
2024/01/09 06:05:04;;;;;;;115.47;44.23;;;;;;;;;;10091641;29;20386;-78
2024/01/09 06:10:05;;;;;;;114.87;41.97;;;;;;;;;;10089997;29;20030;-80
2024/01/09 06:15:06;;;;;;;110.27;38.30;;;;;;;;;;10090343;29;20037;-78
2024/01/09 06:20:13;;;;;;;108.00;43.13;;;;;;;;;;10090529;29;20021;-79
2024/01/09 06:25:14;;;;;;;122.70;40.77;;;;;;;;;;10090448;29;20033;-81
2024/01/09 06:30:16;;;;;;;106.07;39.87;;;;;;;;;;10090155;29;20405;-80
2024/01/09 06:35:17;;;;;;;106.43;39.90;;;;;;;;;;10090171;29;20040;-78
2024/01/09 06:40:20;;;;;;;101.87;36.80;;;;;;;;;;10089209;29;20825;-79
2024/01/09 06:45:21;;;;;;;112.53;41.20;;;;;;;;;;10089021;29;20315;-78
2024/01/09 06:50:22;;;;;;;101.00;39.10;;;;;;;;;;10088177;29;20080;-81
2024/01/09 06:55:23;;;;;;;116.13;40.07;;;;;;;;;;10089633;29;20031;-78
2024/01/09 07:00:24;;;;;;;111.13;42.23;;;;;;;;;;10089690;29;20390;-79
2024/01/09 07:05:25;;;;;;;108.40;41.50;;;;;;;;;;10088364;29;20036;-78
2024/01/09 07:10:26;;;;;;;104.07;38.80;;;;;;;;;;10087904;29;20048;-80
2024/01/09 07:15:27;;;;;;;119.87;43.77;;;;;;;;;;10087923;29;20120;-78
2024/01/09 07:20:28;;;;;;;115.60;44.70;;;;;;;;;;10088487;29;20048;-79
2024/01/09 07:25:29;;;;;;;119.93;41.20;;;;;;;;;;10088408;29;20031;-81
2024/01/09 07:30:37;;;;;;;120.60;42.97;;;;;;;;;;10087947;29;20041;-79
2024/01/09 07:35:38;;;;;;;112.23;43.10;;;;;;;;;;10089066;29;20037;-80
2024/01/09 07:40:39;;;;;;;127.73;46.47;;;;;;;;;;10087893;29;20383;-79
2024/01/09 07:45:40;;;;;;;110.53;41.60;;;;;;;;;;10087749;29;20021;-78
2024/01/09 07:50:42;;;;;;;107.10;37.93;;;;;;;;;;10087486;29;20065;-79
2024/01/09 07:55:43;;;;;;;120.13;43.20;;;;;;;;;;10086709;29;20504;-78
2024/01/09 08:00:44;;;;;;;107.63;40.20;;;;;;;;;;10087276;29;20037;-79
2024/01/09 08:05:45;;;;;;;102.07;40.30;;;;;;;;;;10086944;29;20025;-78
2024/01/09 08:10:46;;;;;;;104.43;42.73;;;;;;;;;;10086760;29;20064;-79
2024/01/09 08:15:53;;;;;;;98.13;40.10;;;;;;;;;;10086028;29;20037;-80
2024/01/09 08:20:54;;;;;;;110.50;41.43;;;;;;;;;;10086792;29;20539;-78
2024/01/09 08:25:55;;;;;;;96.73;35.93;;;;;;;;;;10087548;29;20116;-79
2024/01/09 08:30:56;;;;;;;94.90;37.90;;;;;;;;;;10086360;29;20029;-79
2024/01/09 08:35:57;;;;;;;111.37;38.50;;;;;;;;;;10087010;29;20024;-80
2024/01/09 08:40:58;;;;;;;104.93;34.70;;;;;;;;;;10086568;29;20067;-81
2024/01/09 08:45:59;;;;;;;107.50;38.20;;;;;;;;;;10085818;29;20029;-80
2024/01/09 08:51:00;;;;;;;94.87;34.43;;;;;;;;;;10085465;29;20528;-84
2024/01/09 08:56:01;;;;;;;111.80;38.27;;;;;;;;;;10086310;29;20036;-82
2024/01/09 09:01:03;;;;;;;90.00;34.07;;;;;;;;;;10074273;29;20033;-82
2024/01/09 09:06:04;;;;;;;92.90;36.30;;;;;;;;;;10084417;29;20036;-81
2024/01/09 09:11:07;;;;;;;106.70;35.50;;;;;;;;;;10085274;29;20059;-83
2024/01/09 09:16:08;;;;;;;98.23;33.40;;;;;;;;;;10085159;29;20022;-80
2024/01/09 09:21:15;;;;;;;80.90;33.20;;;;;;;;;;10081874;29;20478;-80
2024/01/09 09:26:16;;;;;;;71.13;27.20;;;;;;;;;;10061331;29;20033;-81
2024/01/09 09:31:17;;;;;;;84.30;31.70;;;;;;;;;;10092171;29;20115;-83
2024/01/09 09:36:18;;;;;;;79.10;29.80;;;;;;;;;;10092002;29;20088;-83
2024/01/09 09:41:23;;;;;;;76.30;29.53;;;;;;;;;;10093086;29;20045;-82
2024/01/09 09:46:26;;;;;;;78.88;32.80;;;;;;;;;;10092029;29;20683;-81
2024/01/09 09:51:27;;;;;;;82.87;29.00;;;;;;;;;;10091165;29;20425;-82
2024/01/09 09:56:28;;;;;;;80.83;29.63;;;;;;;;;;10090822;29;20044;-81
2024/01/09 10:01:30;;;;;;;80.70;29.73;;;;;;;;;;10090592;29;20044;-81
2024/01/09 10:06:32;;;;;;;82.43;28.27;;;;;;;;;;10091862;29;20025;-82
2024/01/09 10:11:33;;;;;;;84.00;29.17;;;;;;;;;;10090858;29;20059;-82
2024/01/09 10:16:54;;;;;;;73.07;27.43;;;;;;;;;;10091056;29;20029;-83
2024/01/09 10:21:55;;;;;;;78.37;31.23;;;;;;;;;;10073699;29;20041;-82
2024/01/09 10:26:57;;;;;;;82.37;27.60;;;;;;;;;;10091201;29;20047;-81
2024/01/09 10:31:58;;;;;;;74.93;25.93;;;;;;;;;;10089641;29;20033;-78
2024/01/09 10:37:08;;;;;;;65.80;26.20;;;;;;;;;;10090032;29;20029;-79
2024/01/09 10:42:10;;;;;;;66.13;23.50;;;;;;;;;;10089697;29;20043;-80
2024/01/09 10:47:15;;;;;;;64.83;25.17;;;;;;;;;;10088960;29;20132;-80
2024/01/09 10:52:17;;;;;;;61.63;22.97;;;;;;;;;;10090997;29;20065;-79
2024/01/09 10:57:18;;;;;;;52.60;22.97;;;;;;;;;;10089693;29;20037;-81
2024/01/09 11:02:21;;;;;;;55.23;20.27;;;;;;;;;;10072382;29;20133;-80
2024/01/09 11:07:23;;;;;;;41.57;16.37;;;;;;;;;;10088867;29;20576;-79
2024/01/09 11:12:28;;;;;;;52.87;16.87;;;;;;;;;;10088561;29;20120;-79
2024/01/09 11:17:30;;;;;;;49.67;19.08;;;;;;;;;;10088978;29;20033;-79
2024/01/09 11:22:35;;;;;;;47.70;19.23;;;;;;;;;;10088065;29;20170;-81
2024/01/09 11:27:39;;;;;;;51.57;20.73;;;;;;;;;;10088650;29;20022;-79
2024/01/09 11:32:47;;;;;;;48.20;19.83;;;;;;;;;;10087045;29;20045;-80
2024/01/09 11:37:49;;;;;;;47.10;17.43;;;;;;;;;;10071474;29;20084;-80
2024/01/09 11:42:51;;;;;;;45.23;15.73;;;;;;;;;;10088477;29;20085;-80
2024/01/09 11:47:55;;;;;;;41.07;14.43;;;;;;;;;;10088403;29;20379;-78
2024/01/09 11:53:03;;;;;;;42.60;13.73;;;;;;;;;;10086243;29;20144;-78
2024/01/09 11:58:06;;;;;;;36.83;14.47;;;;;;;;;;10087394;29;20120;-80
2024/01/09 12:03:07;;;;;;;33.50;12.67;;;;;;;;;;10087400;29;20097;-80
2024/01/09 12:08:08;;;;;;;32.73;11.67;;;;;;;;;;10087514;29;20064;-79
2024/01/09 12:13:15;;;;;;;27.40;9.43;;;;;;;;;;10087837;29;20561;-79
2024/01/09 12:18:16;;;;;;;36.43;12.10;;;;;;;;;;10086560;29;20071;-79
2024/01/09 12:23:19;;;;;;;23.97;10.20;;;;;;;;;;10086097;29;20545;-81
2024/01/09 12:28:20;;;;;;;19.67;7.20;;;;;;;;;;10086970;29;20820;-79
2024/01/09 12:33:21;;;;;;;25.60;9.40;;;;;;;;;;10086363;29;20035;-80
2024/01/09 12:38:22;;;;;;;16.00;6.23;;;;;;;;;;10086579;29;20041;-79
2024/01/09 12:43:23;;;;;;;15.33;6.10;;;;;;;;;;10085326;29;20044;-79
2024/01/09 12:48:26;;;;;;;24.53;8.00;;;;;;;;;;10086393;29;20128;-80
2024/01/09 12:53:28;;;;;;;33.37;8.57;;;;;;;;;;10085620;29;21237;-80
2024/01/09 12:58:29;;;;;;;18.20;6.80;;;;;;;;;;10085600;29;20077;-81
2024/01/09 13:03:30;;;;;;;18.40;6.90;;;;;;;;;;10089977;29;20374;-81
2024/01/09 13:08:33;;;;;;;18.47;6.37;;;;;;;;;;10092547;29;20036;-79
2024/01/09 13:13:35;;;;;;;17.77;5.37;;;;;;;;;;10094233;29;20470;-80
2024/01/09 13:18:36;;;;;;;14.37;5.87;;;;;;;;;;10093063;29;20037;-79
2024/01/09 13:23:37;;;;;;;17.20;5.73;;;;;;;;;;10093248;29;20029;-79
2024/01/09 13:28:38;;;;;;;11.47;4.10;;;;;;;;;;10093043;29;20073;-79
2024/01/09 13:33:40;;;;;;;10.87;4.80;;;;;;;;;;10092770;29;20044;-80
2024/01/09 13:38:41;;;;;;;10.53;3.70;;;;;;;;;;10092849;29;20375;-80
2024/01/09 13:43:42;;;;;;;16.37;5.53;;;;;;;;;;10092634;29;20033;-80
2024/01/09 13:48:52;;;;;;;13.27;4.07;;;;;;;;;;10092226;29;20098;-81
2024/01/09 13:53:53;;;;;;;12.00;5.20;;;;;;;;;;10092279;29;20056;-79
2024/01/09 13:58:55;;;;;;;14.00;5.53;;;;;;;;;;10091442;29;20378;-80
2024/01/09 14:03:56;;;;;;;16.13;5.63;;;;;;;;;;10090973;29;20068;-80
2024/01/09 14:08:59;;;;;;;11.60;4.70;;;;;;;;;;10090756;29;20490;-78
2024/01/09 14:14:00;;;;;;;13.23;4.67;;;;;;;;;;10089944;29;20044;-81
2024/01/09 14:19:03;;;;;;;13.77;5.17;;;;;;;;;;10090595;29;20044;-79
2024/01/09 14:24:04;;;;;;;14.67;5.43;;;;;;;;;;10090728;29;20039;-79
2024/01/09 14:29:05;;;;;;;15.20;5.53;;;;;;;;;;10091186;29;20040;-79
2024/01/09 14:34:06;;;;;;;17.20;5.00;;;;;;;;;;10089684;29;20039;-79
2024/01/09 14:39:07;;;;;;;11.17;4.57;;;;;;;;;;10090062;29;20671;-81
2024/01/09 14:44:08;;;;;;;18.27;6.83;;;;;;;;;;10090084;29;20039;-80
2024/01/09 14:49:09;;;;;;;21.37;6.80;;;;;;;;;;10089033;29;20402;-80
2024/01/09 14:54:10;;;;;;;23.33;7.97;;;;;;;;;;10089553;29;20036;-80
2024/01/09 14:59:11;;;;;;;18.17;6.37;;;;;;;;;;10089542;29;20541;-79
2024/01/09 15:04:13;;;;;;;17.47;6.10;;;;;;;;;;10104033;29;20120;-80
2024/01/09 15:09:14;;;;;;;16.03;6.00;;;;;;;;;;10094686;29;20072;-80
2024/01/09 15:14:15;;;;;;;21.70;7.60;;;;;;;;;;10100529;29;20051;-80
2024/01/09 15:19:17;;;;;;;28.63;9.97;;;;;;;;;;10089352;29;20093;-81
2024/01/09 15:24:18;;;;;;;24.93;9.17;;;;;;;;;;10095519;29;20840;-82
2024/01/09 15:29:26;;;;;;;61.13;22.10;;;;;;;;;;10103861;29;20045;-82
2024/01/09 15:34:27;;;;;;;63.93;22.30;;;;;;;;;;10084781;29;20044;-81
2024/01/09 15:39:29;;;;;;;68.33;25.60;;;;;;;;;;10071087;29;20155;-83
2024/01/09 15:44:30;;;;;;;68.20;23.43;;;;;;;;;;10097397;29;20462;-82
2024/01/09 15:49:31;;;;;;;66.37;24.53;;;;;;;;;;10087992;29;20064;-79
2024/01/09 15:54:37;;;;;;;72.90;25.57;;;;;;;;;;10107512;29;20044;-83
2024/01/09 15:59:40;;;;;;;87.67;29.50;;;;;;;;;;10093734;29;20060;-83
2024/01/09 16:04:42;;;;;;;96.47;32.63;;;;;;;;;;10104646;29;20112;-84
2024/01/09 16:09:43;;;;;;;95.50;29.00;;;;;;;;;;10088159;29;20043;-83
2024/01/09 16:14:44;;;;;;;92.37;33.43;;;;;;;;;;10093102;29;20032;-85
2024/01/09 16:19:45;;;;;;;76.30;27.33;;;;;;;;;;10068711;29;20552;-81
2024/01/09 16:24:46;;;;;;;83.87;28.80;;;;;;;;;;10101440;29;20043;-80
2024/01/09 16:29:47;;;;;;;73.97;27.97;;;;;;;;;;10086426;29;20072;-81
2024/01/09 16:34:48;;;;;;;79.87;28.47;;;;;;;;;;10092820;29;20061;-82
2024/01/09 16:39:49;;;;;;;86.10;29.93;;;;;;;;;;10068555;29;20036;-82
2024/01/09 16:44:50;;;;;;;102.27;34.53;;;;;;;;;;10102805;29;20036;-80
2024/01/09 16:49:51;;;;;;;141.57;47.57;;;;;;;;;;10094328;29;20069;-81
2024/01/09 16:54:54;;;;;;;119.80;45.77;;;;;;;;;;10094851;29;20033;-80
2024/01/09 16:59:55;;;;;;;83.37;29.93;;;;;;;;;;10076451;29;20033;-85
2024/01/09 17:04:56;;;;;;;82.17;30.40;;;;;;;;;;10099735;29;20124;-83
2024/01/09 17:09:58;;;;;;;84.57;28.40;;;;;;;;;;10094368;29;20509;-85
2024/01/09 17:14:59;;;;;;;72.50;28.87;;;;;;;;;;10106079;23;20072;-84
2024/01/09 17:20:00;;;;;;;74.63;29.03;;;;;;;;;;10122350;29;20055;-83
2024/01/09 17:25:01;;;;;;;72.77;29.20;;;;;;;;;;10111634;29;20085;-82
2024/01/09 17:30:02;;;;;;;81.97;30.50;;;;;;;;;;10111992;29;20409;-84
2024/01/09 17:35:04;;;;;;;87.10;31.20;;;;;;;;;;10127772;29;20044;-86
2024/01/09 17:40:05;;;;;;;97.13;34.50;;;;;;;;;;10125480;29;20043;-82
2024/01/09 17:45:08;;;;;;;87.73;31.50;;;;;;;;;;10124906;29;20037;-84
2024/01/09 17:50:09;;;;;;;85.30;31.07;;;;;;;;;;10114395;29;20131;-85
2024/01/09 17:55:10;;;;;;;88.70;34.20;;;;;;;;;;10101391;29;20041;-84
2024/01/09 18:00:12;;;;;;;91.83;33.53;;;;;;;;;;10120808;29;20390;-81
2024/01/09 18:05:13;;;;;;;84.63;31.40;;;;;;;;;;10117995;29;20457;-83
2024/01/09 18:10:16;;;;;;;91.37;34.20;;;;;;;;;;10118636;29;20186;-82
2024/01/09 18:15:17;;;;;;;84.57;32.83;;;;;;;;;;10085789;29;20061;-84
2024/01/09 18:20:18;;;;;;;110.87;40.33;;;;;;;;;;10088267;29;20423;-83
2024/01/09 18:25:19;;;;;;;114.13;44.73;;;;;;;;;;10088016;29;20045;-83
2024/01/09 18:30:20;;;;;;;116.10;46.07;;;;;;;;;;10070923;29;20450;-83
2024/01/09 18:35:21;;;;;;;95.80;35.80;;;;;;;;;;10091056;29;20116;-84
2024/01/09 18:40:24;;;;;;;104.03;39.27;;;;;;;;;;10089891;29;20096;-83
2024/01/09 18:45:25;;;;;;;90.97;34.30;;;;;;;;;;10088943;29;20043;-85
2024/01/09 18:50:26;;;;;;;102.73;40.87;;;;;;;;;;10089740;29;20041;-82
2024/01/09 18:55:27;;;;;;;115.83;43.90;;;;;;;;;;10088544;29;20402;-83
2024/01/09 19:00:28;;;;;;;119.80;41.90;;;;;;;;;;10066510;29;20049;-83
2024/01/09 19:05:29;;;;;;;122.20;44.47;;;;;;;;;;10088914;29;20041;-82
2024/01/09 19:10:30;;;;;;;117.33;41.63;;;;;;;;;;10090007;29;20097;-82
2024/01/09 19:15:31;;;;;;;113.40;41.57;;;;;;;;;;10118983;29;20515;-82
2024/01/09 19:20:32;;;;;;;112.70;39.73;;;;;;;;;;10120355;29;20071;-85
2024/01/09 19:25:33;;;;;;;109.17;40.40;;;;;;;;;;10118993;29;20155;-82
2024/01/09 19:30:34;;;;;;;103.70;42.17;;;;;;;;;;10124148;29;20041;-81
2024/01/09 19:35:36;;;;;;;120.50;43.03;;;;;;;;;;10101821;29;20040;-83
2024/01/09 19:40:37;;;;;;;119.67;45.77;;;;;;;;;;10106800;23;20052;-81
2024/01/09 19:45:39;;;;;;;122.50;43.20;;;;;;;;;;10085985;29;20039;-83
2024/01/09 19:50:47;;;;;;;116.47;45.40;;;;;;;;;;10087596;29;20044;-84
2024/01/09 19:55:48;;;;;;;134.67;53.20;;;;;;;;;;10092670;29;20079;-82
2024/01/09 20:00:49;;;;;;;169.70;64.90;;;;;;;;;;10122293;29;20032;-81
2024/01/09 20:05:50;;;;;;;188.53;71.17;;;;;;;;;;10120831;29;20141;-81
2024/01/09 20:10:52;;;;;;;199.00;72.03;;;;;;;;;;10125078;29;20046;-82
2024/01/09 20:15:53;;;;;;;272.47;93.40;;;;;;;;;;10124209;29;20047;-85
2024/01/09 20:20:54;;;;;;;222.47;81.10;;;;;;;;;;10122390;29;20031;-82
2024/01/09 20:25:55;;;;;;;215.83;78.43;;;;;;;;;;10112837;29;20703;-83
2024/01/09 20:30:56;;;;;;;184.77;72.73;;;;;;;;;;10117259;29;20048;-83
2024/01/09 20:35:59;;;;;;;186.97;68.67;;;;;;;;;;10123945;29;20742;-82
2024/01/09 20:41:00;;;;;;;178.00;64.47;;;;;;;;;;10111326;29;20060;-84
2024/01/09 20:46:01;;;;;;;195.70;70.40;;;;;;;;;;10109680;29;20441;-83
2024/01/09 20:51:06;;;;;;;177.83;62.20;;;;;;;;;;10117478;29;20044;-82
2024/01/09 20:56:14;;;;;;;169.38;60.63;;;;;;;;;;10113696;29;20044;-82
2024/01/09 21:01:16;;;;;;;185.67;64.63;;;;;;;;;;10103947;29;20102;-81
2024/01/09 21:06:17;;;;;;;168.80;63.73;;;;;;;;;;10122556;29;20044;-81
2024/01/09 21:11:18;;;;;;;178.27;64.40;;;;;;;;;;10125337;29;20040;-81
2024/01/09 21:16:19;;;;;;;175.53;69.07;;;;;;;;;;10122147;29;20040;-84
2024/01/09 21:21:20;;;;;;;177.33;66.90;;;;;;;;;;10122409;29;20040;-84
2024/01/09 21:26:21;;;;;;;182.93;70.57;;;;;;;;;;10129588;29;20032;-82
2024/01/09 21:31:23;;;;;;;187.33;68.73;;;;;;;;;;10124148;29;20045;-81
2024/01/09 21:36:25;;;;;;;229.53;85.23;;;;;;;;;;10126979;29;20040;-81
2024/01/09 21:41:26;;;;;;;208.00;81.13;;;;;;;;;;10125959;29;20439;-82
2024/01/09 21:46:27;;;;;;;218.87;83.90;;;;;;;;;;10109550;29;20127;-83
2024/01/09 21:51:28;;;;;;;230.77;84.20;;;;;;;;;;10130596;29;20143;-81
2024/01/09 21:56:29;;;;;;;233.90;84.53;;;;;;;;;;10131009;29;20033;-84
2024/01/09 22:01:31;;;;;;;204.37;73.77;;;;;;;;;;10119410;29;20397;-82
2024/01/09 22:06:32;;;;;;;215.77;83.57;;;;;;;;;;10128310;29;20104;-84
2024/01/09 22:11:33;;;;;;;212.53;78.43;;;;;;;;;;10112829;29;20045;-83
2024/01/09 22:16:34;;;;;;;218.97;82.20;;;;;;;;;;10130139;29;20115;-81
2024/01/09 22:21:40;;;;;;;230.93;88.60;;;;;;;;;;10130378;29;20068;-82
2024/01/09 22:26:42;;;;;;;232.53;84.87;;;;;;;;;;10126379;29;20052;-81
2024/01/09 22:31:43;;;;;;;260.17;93.13;;;;;;;;;;10111937;29;20512;-81
2024/01/09 22:36:44;;;;;;;261.47;96.80;;;;;;;;;;10122618;29;20120;-83
2024/01/09 22:41:47;;;;;;;270.03;100.73;;;;;;;;;;10121829;29;20139;-82
2024/01/09 22:46:48;;;;;;;242.23;93.23;;;;;;;;;;10121003;29;20025;-82
2024/01/09 22:51:49;;;;;;;209.80;74.03;;;;;;;;;;10128138;29;20532;-81
2024/01/09 22:56:50;;;;;;;226.23;86.37;;;;;;;;;;10118353;29;20047;-83
2024/01/09 23:01:51;;;;;;;242.03;89.00;;;;;;;;;;10127428;29;20128;-83
2024/01/09 23:06:53;;;;;;;235.97;88.20;;;;;;;;;;10120741;29;20489;-83
2024/01/09 23:11:54;;;;;;;211.67;79.80;;;;;;;;;;10122100;29;20048;-84
2024/01/09 23:16:55;;;;;;;234.87;90.93;;;;;;;;;;10127239;29;20147;-82
2024/01/09 23:21:56;;;;;;;212.83;74.23;;;;;;;;;;10122814;29;20091;-85
2024/01/09 23:26:57;;;;;;;216.27;80.17;;;;;;;;;;10127451;29;20040;-83
2024/01/09 23:31:58;;;;;;;198.70;70.73;;;;;;;;;;10124922;29;20104;-82
2024/01/09 23:36:59;;;;;;;209.13;73.73;;;;;;;;;;10103669;29;20032;-82
2024/01/09 23:42:00;;;;;;;216.63;81.27;;;;;;;;;;10116953;29;20068;-81
2024/01/09 23:47:01;;;;;;;221.27;85.33;;;;;;;;;;10119426;29;20032;-82
2024/01/09 23:52:02;;;;;;;230.33;85.27;;;;;;;;;;10126394;29;20044;-81
2024/01/09 23:57:03;;;;;;;244.93;92.23;;;;;;;;;;10123958;29;20036;-82
